createdAt,value
2023-01-03T06:49:56.938Z,5.70
2023-01-03T06:53:13.789Z,5.80
2023-01-03T06:56:15.523Z,6.20
2023-01-03T06:59:18.556Z,6.40
2023-01-03T07:02:20.310Z,6.50
2023-01-03T07:05:22.142Z,6.50
2023-01-03T07:08:24.213Z,6.60
2023-01-03T07:11:26.766Z,6.60
2023-01-03T07:14:28.426Z,6.70
2023-01-03T07:17:30.301Z,6.70
2023-01-03T07:20:31.989Z,6.70
2023-01-03T07:23:33.680Z,6.80
2023-01-03T07:26:35.967Z,6.90
2023-01-03T07:29:37.608Z,7.00
2023-01-03T07:32:39.276Z,7.20
2023-01-03T07:35:41.572Z,7.30
2023-01-03T07:38:45.383Z,7.40
2023-01-03T07:42:07.005Z,7.40
2023-01-03T07:45:09.272Z,7.50
2023-01-03T07:48:11.500Z,7.50
2023-01-03T07:51:15.409Z,7.60
2023-01-03T07:54:17.034Z,7.60
2023-01-03T07:57:18.691Z,7.60
2023-01-03T08:00:20.333Z,7.70
2023-01-03T08:03:22.275Z,7.60
2023-01-03T08:06:24.912Z,7.60
2023-01-03T08:09:46.521Z,7.70
2023-01-03T08:13:08.121Z,7.90
2023-01-03T08:16:11.825Z,8.00
2023-01-03T08:19:13.577Z,8.00
2023-01-03T08:22:15.222Z,8.00
2023-01-03T08:25:16.962Z,8.10
2023-01-03T08:28:18.933Z,8.20
2023-01-03T08:31:23.391Z,8.30
2023-01-03T08:34:30.211Z,8.20
2023-01-03T08:37:32.221Z,7.80
2023-01-03T08:40:41.632Z,7.80
2023-01-03T08:43:46.530Z,7.90
2023-01-03T08:46:51.453Z,8.20
2023-01-03T08:49:53.346Z,8.40
2023-01-03T08:52:55.139Z,8.40
2023-01-03T08:55:56.991Z,8.30
2023-01-03T08:58:58.822Z,8.20
2023-01-03T09:02:01.009Z,8.30
2023-01-03T09:05:03.016Z,8.40
2023-01-03T09:08:05.143Z,8.50
2023-01-03T09:11:08.737Z,8.50
2023-01-03T09:14:10.373Z,8.40
2023-01-03T09:17:12.030Z,8.40
2023-01-03T09:20:16.523Z,8.50
2023-01-03T09:23:18.281Z,8.70
2023-01-03T09:26:20.156Z,8.70
2023-01-03T09:29:21.932Z,8.20
2023-01-03T09:32:23.801Z,8.20
2023-01-03T09:35:25.530Z,8.50
2023-01-03T09:38:27.373Z,8.80
2023-01-03T09:41:29.068Z,8.80
2023-01-03T09:44:30.738Z,8.90
2023-01-03T09:47:36.681Z,8.90
2023-01-03T09:51:14.118Z,8.90
2023-01-03T09:54:20.995Z,9.00
2023-01-03T09:57:48.912Z,9.10
2023-01-03T10:01:14.260Z,8.60
2023-01-03T10:04:47.286Z,9.10
2023-01-03T10:08:28.803Z,9.80
2023-01-03T10:12:03.448Z,10.20
2023-01-03T10:15:37.361Z,10.90
2023-01-03T10:19:12.015Z,11.90
2023-01-03T10:22:19.145Z,12.70
2023-01-03T10:25:23.219Z,12.90
2023-01-03T10:28:29.427Z,13.70
2023-01-03T10:31:45.082Z,14.10
2023-01-03T10:35:21.420Z,14.00
2023-01-03T10:38:25.636Z,14.70
2023-01-03T10:41:39.336Z,14.10
2023-01-03T10:44:59.504Z,14.30
2023-01-03T10:48:01.810Z,14.70
2023-01-03T10:51:06.864Z,14.70
2023-01-03T10:54:21.039Z,15.50
2023-01-03T10:57:55.417Z,15.30
2023-01-03T11:01:18.865Z,15.30
2023-01-03T11:04:20.609Z,15.60
2023-01-03T11:07:22.378Z,15.70
2023-01-03T11:10:36.930Z,16.00
2023-01-03T11:13:41.642Z,15.80
2023-01-03T11:16:43.394Z,15.50
2023-01-03T11:19:45.364Z,15.70
2023-01-03T11:22:56.490Z,16.10
2023-01-03T11:26:17.532Z,15.80
2023-01-03T11:29:36.040Z,15.30
2023-01-03T11:32:52.878Z,15.10
2023-01-03T11:36:08.883Z,15.20
2023-01-03T11:39:37.390Z,14.90
2023-01-03T11:43:11.369Z,15.00
2023-01-03T11:46:39.902Z,15.30
2023-01-03T11:49:48.582Z,15.10
2023-01-03T11:53:04.029Z,14.80
2023-01-03T11:56:27.859Z,14.30
2023-01-03T11:59:48.881Z,13.50
2023-01-03T12:03:17.478Z,12.60
2023-01-03T12:06:38.817Z,11.70
2023-01-03T12:09:48.371Z,11.40
2023-01-03T12:13:00.527Z,11.10
2023-01-03T12:16:08.783Z,10.90
2023-01-03T12:19:26.483Z,10.90
2023-01-03T12:22:41.692Z,10.80
2023-01-03T12:25:50.048Z,10.80
2023-01-03T12:29:03.827Z,11.00
2023-01-03T12:32:13.649Z,10.80
2023-01-03T12:35:38.268Z,10.60
2023-01-03T12:38:45.782Z,10.70
2023-01-03T12:42:27.391Z,10.80
2023-01-03T12:45:42.538Z,10.70
2023-01-03T12:49:10.728Z,10.80
2023-01-03T12:52:17.343Z,10.70
2023-01-03T12:55:27.385Z,10.80
2023-01-03T12:58:54.792Z,10.70
2023-01-03T13:02:00.803Z,10.70
2023-01-03T13:05:18.084Z,10.80
2023-01-03T13:08:31.220Z,10.80
2023-01-03T13:11:45.205Z,10.70
2023-01-03T13:15:33.280Z,10.40
2023-01-03T13:18:37.682Z,10.40
2023-01-03T13:22:19.478Z,10.30
2023-01-03T13:25:31.884Z,10.50
2023-01-03T13:28:38.474Z,10.50
2023-01-03T13:31:40.860Z,10.50
2023-01-03T13:34:42.622Z,10.40
2023-01-03T13:37:47.344Z,10.20
2023-01-03T13:41:17.239Z,10.30
2023-01-03T13:44:27.455Z,10.50
2023-01-03T13:47:41.997Z,10.50
2023-01-03T13:51:07.640Z,10.30
2023-01-03T13:54:12.638Z,10.20
2023-01-03T13:57:30.262Z,10.40
2023-01-03T14:00:32.046Z,10.40
2023-01-03T14:04:04.235Z,10.40
2023-01-03T14:07:36.603Z,10.30
2023-01-03T14:10:59.562Z,10.20
2023-01-03T14:14:09.481Z,10.10
2023-01-03T14:17:18.140Z,10.20
2023-01-03T14:20:23.958Z,10.20
2023-01-03T14:26:49.803Z,10.20
2023-01-03T14:29:54.151Z,10.20
2023-01-03T14:32:55.870Z,10.10
2023-01-03T14:36:15.504Z,10.00
2023-01-03T14:42:32.838Z,9.70
2023-01-03T14:45:34.518Z,9.60
2023-01-03T14:48:36.521Z,9.50
2023-01-03T14:51:38.260Z,9.60
2023-01-03T14:54:45.015Z,9.50
2023-01-03T14:57:49.137Z,9.40
2023-01-03T15:00:51.736Z,9.30
2023-01-03T15:03:53.856Z,9.30
2023-01-03T15:07:06.333Z,9.20
2023-01-03T15:10:11.032Z,9.10
2023-01-03T15:13:26.314Z,9.10
2023-01-03T15:16:37.594Z,8.90
2023-01-03T15:19:47.817Z,8.80
2023-01-03T15:22:49.636Z,8.70
2023-01-03T15:25:53.033Z,8.70
2023-01-03T15:29:07.921Z,8.60
2023-01-03T15:32:11.757Z,8.50
2023-01-03T15:35:33.312Z,8.50
2023-01-03T15:38:37.152Z,8.30
2023-01-03T15:42:34.376Z,8.20
2023-01-03T15:45:25.930Z,8.10
2023-01-03T15:48:28.187Z,8.00
2023-01-03T15:51:29.850Z,7.80
2023-01-03T15:54:31.598Z,7.70
2023-01-03T15:57:33.974Z,7.60
2023-01-03T16:00:35.745Z,7.50
2023-01-03T16:03:38.194Z,7.40
2023-01-03T16:06:40.035Z,7.30
2023-01-03T16:09:42.224Z,7.10
2023-01-03T16:12:44.281Z,7.00
2023-01-03T16:15:46.033Z,6.90
2023-01-03T16:18:49.067Z,6.80
2023-01-03T16:22:24.529Z,6.80
2023-01-03T16:25:16.082Z,6.60
2023-01-03T16:28:17.731Z,6.60
2023-01-03T16:31:32.006Z,6.60
2023-01-03T16:34:34.133Z,6.60
2023-01-03T16:37:35.756Z,6.50
2023-01-03T16:40:37.418Z,6.50
2023-01-03T16:43:39.356Z,6.50
2023-01-03T16:46:41.234Z,6.40
2023-01-03T16:49:45.091Z,6.30
2023-01-03T16:52:52.314Z,6.40
2023-01-03T16:55:56.098Z,6.40
2023-01-03T16:58:57.760Z,6.40
